Picada Cafe, Brazil
Current Conditions -  °F | °C
As of 8:00 AM on Tuesday 21 Oct 2014 (Local Time) from SBCO Reporting Station
Haze Haze  
Wind Chill: 59°   Ceiling: Unl
Heat Index: 59°   Visibility: 3mi
Dew Point: 59°   Wind: 2mph
Humidity: 100%   Direction: 110°ESE
Pressure: 30.21"   Gusts: NA
Location:  29.44°S, 51.14°W
Report Text: SBCO 211000Z 11002KT 5000 BR NSC 15/15 Q1023
Loading
Personal Weather Stations






























Interactive Weather Map
Tropical Storm Tracking
New forecast layout! Learn more

10-Day Weather Forecast

Advertisements
Track Severe Weather on mobile